sensor_id;sensor_type;location;lat;lon;timestamp;pressure;altitude;pressure_sealevel;temperature;humidity
76847;BME280;65813;49.546;8.644;2022-12-28T05:17:53;101105.56;;;5.26;76.69
76847;BME280;65813;49.546;8.644;2022-12-28T05:21:57;101088.94;;;5.24;77.14
76847;BME280;65813;49.546;8.644;2022-12-28T05:25:57;101074.72;;;5.26;76.42
76847;BME280;65813;49.546;8.644;2022-12-28T05:29:57;101080.75;;;5.30;76.41
76847;BME280;65813;49.546;8.644;2022-12-28T05:33:58;101066.00;;;5.24;76.43
76847;BME280;65813;49.546;8.644;2022-12-28T05:37:58;101057.09;;;5.27;76.37
76847;BME280;65813;49.546;8.644;2022-12-28T05:41:58;101045.72;;;5.25;76.40
76847;BME280;65813;49.546;8.644;2022-12-28T05:46:05;101057.09;;;5.27;76.90
76847;BME280;65813;49.546;8.644;2022-12-28T05:50:06;101059.91;;;5.22;76.44
76847;BME280;65813;49.546;8.644;2022-12-28T05:54:07;101043.28;;;5.20;76.82
76847;BME280;65813;49.546;8.644;2022-12-28T05:58:07;101039.41;;;5.29;76.17
76847;BME280;65813;49.546;8.644;2022-12-28T06:02:08;101030.44;;;5.33;76.02
76847;BME280;65813;49.546;8.644;2022-12-28T06:06:32;101034.84;;;5.32;76.14
76847;BME280;65813;49.546;8.644;2022-12-28T06:10:33;101026.00;;;5.33;75.80
76847;BME280;65813;49.546;8.644;2022-12-28T06:14:33;101038.50;;;5.30;76.14
76847;BME280;65813;49.546;8.644;2022-12-28T06:18:34;101037.50;;;5.32;76.14
76847;BME280;65813;49.546;8.644;2022-12-28T06:22:34;101027.78;;;5.33;76.06
76847;BME280;65813;49.546;8.644;2022-12-28T06:26:37;101025.16;;;5.33;75.65
76847;BME280;65813;49.546;8.644;2022-12-28T06:30:37;101025.94;;;5.35;75.98
76847;BME280;65813;49.546;8.644;2022-12-28T06:34:37;101024.16;;;5.35;75.51
76847;BME280;65813;49.546;8.644;2022-12-28T06:38:38;101014.53;;;5.34;75.42
76847;BME280;65813;49.546;8.644;2022-12-28T06:42:38;101007.22;;;5.41;75.58
76847;BME280;65813;49.546;8.644;2022-12-28T06:46:38;100992.47;;;5.35;75.48
76847;BME280;65813;49.546;8.644;2022-12-28T06:50:39;101005.63;;;5.37;75.66
76847;BME280;65813;49.546;8.644;2022-12-28T06:54:39;101002.84;;;5.40;75.35
76847;BME280;65813;49.546;8.644;2022-12-28T06:58:40;101008.78;;;5.45;75.28
76847;BME280;65813;49.546;8.644;2022-12-28T07:02:41;101004.84;;;5.55;75.18
76847;BME280;65813;49.546;8.644;2022-12-28T07:06:42;101000.59;;;5.51;74.98
76847;BME280;65813;49.546;8.644;2022-12-28T07:10:43;100982.97;;;5.51;74.97
76847;BME280;65813;49.546;8.644;2022-12-28T07:14:43;100984.53;;;5.55;74.80
76847;BME280;65813;49.546;8.644;2022-12-28T07:18:44;100987.25;;;5.54;75.59
76847;BME280;65813;49.546;8.644;2022-12-28T07:22:45;100999.44;;;5.58;74.92
76847;BME280;65813;49.546;8.644;2022-12-28T07:26:45;101001.72;;;5.66;74.94
76847;BME280;65813;49.546;8.644;2022-12-28T07:30:47;100996.56;;;5.63;75.05
76847;BME280;65813;49.546;8.644;2022-12-28T07:34:47;100988.91;;;5.56;75.45
76847;BME280;65813;49.546;8.644;2022-12-28T07:38:48;100992.28;;;5.60;75.30
76847;BME280;65813;49.546;8.644;2022-12-28T07:42:48;100984.31;;;5.62;75.46
76847;BME280;65813;49.546;8.644;2022-12-28T07:46:49;100977.19;;;5.62;74.87
76847;BME280;65813;49.546;8.644;2022-12-28T07:50:49;100979.03;;;5.80;74.92
76847;BME280;65813;49.546;8.644;2022-12-28T07:54:49;100986.19;;;5.78;74.70
76847;BME280;65813;49.546;8.644;2022-12-28T07:58:55;100981.06;;;5.75;74.78
76847;BME280;65813;49.546;8.644;2022-12-28T08:02:56;100956.41;;;5.75;74.74
76847;BME280;65813;49.546;8.644;2022-12-28T08:06:56;100966.88;;;5.76;75.27
76847;BME280;65813;49.546;8.644;2022-12-28T08:11:01;100969.09;;;5.87;74.51
76847;BME280;65813;49.546;8.644;2022-12-28T08:15:01;100963.03;;;5.83;75.00
76847;BME280;65813;49.546;8.644;2022-12-28T08:19:02;100953.69;;;5.96;74.60
76847;BME280;65813;49.546;8.644;2022-12-28T08:23:03;100954.63;;;5.95;74.44
76847;BME280;65813;49.546;8.644;2022-12-28T08:27:03;100955.53;;;5.94;74.90
76847;BME280;65813;49.546;8.644;2022-12-28T08:31:12;100956.09;;;6.01;74.87
76847;BME280;65813;49.546;8.644;2022-12-28T08:35:12;100954.28;;;6.03;74.52
76847;BME280;65813;49.546;8.644;2022-12-28T08:39:13;100951.19;;;6.12;74.59
76847;BME280;65813;49.546;8.644;2022-12-28T08:43:13;100951.25;;;6.10;74.50
76847;BME280;65813;49.546;8.644;2022-12-28T08:47:14;100940.41;;;6.17;74.08
76847;BME280;65813;49.546;8.644;2022-12-28T08:51:20;100938.09;;;6.28;73.90
76847;BME280;65813;49.546;8.644;2022-12-28T08:55:21;100929.19;;;6.30;73.19
76847;BME280;65813;49.546;8.644;2022-12-28T08:59:21;100946.41;;;6.39;73.03
76847;BME280;65813;49.546;8.644;2022-12-28T09:03:22;100939.31;;;6.39;72.88
76847;BME280;65813;49.546;8.644;2022-12-28T09:07:22;100947.69;;;6.49;72.59
76847;BME280;65813;49.546;8.644;2022-12-28T09:11:22;100942.13;;;6.55;72.30
76847;BME280;65813;49.546;8.644;2022-12-28T09:15:23;100937.19;;;6.83;71.13
76847;BME280;65813;49.546;8.644;2022-12-28T09:19:23;100943.19;;;6.87;70.99
76847;BME280;65813;49.546;8.644;2022-12-28T09:23:24;100944.06;;;7.04;70.18
76847;BME280;65813;49.546;8.644;2022-12-28T09:27:24;100937.84;;;7.05;70.08
76847;BME280;65813;49.546;8.644;2022-12-28T09:31:27;100934.88;;;7.11;69.47
76847;BME280;65813;49.546;8.644;2022-12-28T09:35:28;100927.16;;;7.07;70.25
76847;BME280;65813;49.546;8.644;2022-12-28T09:39:28;100940.56;;;7.21;69.54
76847;BME280;65813;49.546;8.644;2022-12-28T09:43:29;100944.00;;;7.23;69.69
76847;BME280;65813;49.546;8.644;2022-12-28T09:47:32;100919.09;;;7.27;69.11
76847;BME280;65813;49.546;8.644;2022-12-28T09:51:37;100908.00;;;7.36;69.09
76847;BME280;65813;49.546;8.644;2022-12-28T10:00:02;100914.31;;;7.51;68.18
76847;BME280;65813;49.546;8.644;2022-12-28T10:04:04;100901.72;;;7.72;67.83
76847;BME280;65813;49.546;8.644;2022-12-28T10:08:05;100904.47;;;7.86;67.75
76847;BME280;65813;49.546;8.644;2022-12-28T10:12:14;100909.78;;;8.01;66.99
76847;BME280;65813;49.546;8.644;2022-12-28T10:16:17;100902.06;;;8.30;66.62
76847;BME280;65813;49.546;8.644;2022-12-28T10:20:20;100911.75;;;8.31;66.76
76847;BME280;65813;49.546;8.644;2022-12-28T10:24:22;100903.34;;;8.54;66.15
76847;BME280;65813;49.546;8.644;2022-12-28T10:28:27;100889.16;;;8.55;65.70
76847;BME280;65813;49.546;8.644;2022-12-28T10:32:53;100872.34;;;8.39;66.28
76847;BME280;65813;49.546;8.644;2022-12-28T10:36:54;100876.78;;;8.38;67.14
76847;BME280;65813;49.546;8.644;2022-12-28T10:41:01;100861.72;;;8.23;67.62
76847;BME280;65813;49.546;8.644;2022-12-28T10:45:23;100865.16;;;8.09;67.40
76847;BME280;65813;49.546;8.644;2022-12-28T10:49:26;100865.13;;;8.56;66.26
76847;BME280;65813;49.546;8.644;2022-12-28T10:53:49;100845.75;;;8.70;65.68
76847;BME280;65813;49.546;8.644;2022-12-28T10:57:51;100845.31;;;8.62;65.85
76847;BME280;65813;49.546;8.644;2022-12-28T11:01:51;100830.06;;;8.36;66.01
76847;BME280;65813;49.546;8.644;2022-12-28T11:06:14;100827.13;;;8.25;67.18
76847;BME280;65813;49.546;8.644;2022-12-28T11:10:27;100818.88;;;8.31;67.59
76847;BME280;65813;49.546;8.644;2022-12-28T11:14:35;100810.25;;;8.26;67.96
76847;BME280;65813;49.546;8.644;2022-12-28T11:18:36;100812.50;;;8.33;67.56
76847;BME280;65813;49.546;8.644;2022-12-28T11:22:37;100805.41;;;8.34;67.98
76847;BME280;65813;49.546;8.644;2022-12-28T11:26:40;100800.97;;;8.34;67.72
76847;BME280;65813;49.546;8.644;2022-12-28T11:30:42;100800.28;;;8.31;67.96
76847;BME280;65813;49.546;8.644;2022-12-28T11:34:56;100774.41;;;8.19;68.48
76847;BME280;65813;49.546;8.644;2022-12-28T11:38:57;100761.38;;;8.14;68.04
76847;BME280;65813;49.546;8.644;2022-12-28T11:42:57;100766.50;;;8.17;68.91
76847;BME280;65813;49.546;8.644;2022-12-28T11:47:01;100741.03;;;8.14;69.09
76847;BME280;65813;49.546;8.644;2022-12-28T11:55:34;100771.47;;;8.39;68.44
76847;BME280;65813;49.546;8.644;2022-12-28T11:59:37;100750.44;;;8.36;68.15
76847;BME280;65813;49.546;8.644;2022-12-28T12:07:56;100728.00;;;8.26;69.27
76847;BME280;65813;49.546;8.644;2022-12-28T12:11:59;100744.75;;;8.42;68.88
76847;BME280;65813;49.546;8.644;2022-12-28T12:16:02;100725.13;;;8.30;69.39
76847;BME280;65813;49.546;8.644;2022-12-28T12:20:33;100705.16;;;8.23;69.80
76847;BME280;65813;49.546;8.644;2022-12-28T12:24:56;100691.69;;;8.26;69.71
76847;BME280;65813;49.546;8.644;2022-12-28T12:29:20;100697.59;;;8.31;69.68
76847;BME280;65813;49.546;8.644;2022-12-28T12:33:29;100706.06;;;8.38;69.70
76847;BME280;65813;49.546;8.644;2022-12-28T12:55:13;100677.44;;;8.43;70.57
76847;BME280;65813;49.546;8.644;2022-12-28T13:07:27;100653.59;;;8.57;69.29
76847;BME280;65813;49.546;8.644;2022-12-28T13:11:28;100646.97;;;8.64;69.33
76847;BME280;65813;49.546;8.644;2022-12-28T13:15:30;100640.72;;;8.65;68.73
76847;BME280;65813;49.546;8.644;2022-12-28T13:19:31;100637.38;;;8.61;67.74
76847;BME280;65813;49.546;8.644;2022-12-28T13:23:32;100647.34;;;8.72;68.18
76847;BME280;65813;49.546;8.644;2022-12-28T13:27:34;100611.19;;;8.55;68.21
76847;BME280;65813;49.546;8.644;2022-12-28T13:31:37;100637.84;;;8.68;68.18
76847;BME280;65813;49.546;8.644;2022-12-28T13:35:38;100625.78;;;8.62;68.88
76847;BME280;65813;49.546;8.644;2022-12-28T13:39:38;100601.69;;;8.66;68.86
76847;BME280;65813;49.546;8.644;2022-12-28T13:48:06;100603.13;;;8.85;68.51
76847;BME280;65813;49.546;8.644;2022-12-28T13:52:11;100601.88;;;8.91;67.40
76847;BME280;65813;49.546;8.644;2022-12-28T13:56:15;100599.69;;;8.97;66.84
76847;BME280;65813;49.546;8.644;2022-12-28T14:00:18;100592.50;;;8.99;67.21
76847;BME280;65813;49.546;8.644;2022-12-28T14:04:22;100586.81;;;8.91;67.28
76847;BME280;65813;49.546;8.644;2022-12-28T14:08:24;100586.72;;;8.93;67.63
76847;BME280;65813;49.546;8.644;2022-12-28T14:12:25;100585.00;;;8.92;67.33
76847;BME280;65813;49.546;8.644;2022-12-28T14:16:26;100577.69;;;8.95;67.35
76847;BME280;65813;49.546;8.644;2022-12-28T14:20:26;100569.06;;;8.92;67.21
76847;BME280;65813;49.546;8.644;2022-12-28T14:24:27;100563.75;;;8.92;67.38
76847;BME280;65813;49.546;8.644;2022-12-28T14:28:36;100560.69;;;8.98;67.07
76847;BME280;65813;49.546;8.644;2022-12-28T14:32:38;100567.81;;;8.97;67.17
76847;BME280;65813;49.546;8.644;2022-12-28T14:36:42;100564.22;;;8.98;66.80
76847;BME280;65813;49.546;8.644;2022-12-28T14:40:58;100555.38;;;8.98;67.17
76847;BME280;65813;49.546;8.644;2022-12-28T14:45:20;100555.09;;;9.02;67.31
76847;BME280;65813;49.546;8.644;2022-12-28T14:53:23;100547.66;;;9.07;66.51
76847;BME280;65813;49.546;8.644;2022-12-28T14:57:34;100546.72;;;9.08;66.29
76847;BME280;65813;49.546;8.644;2022-12-28T15:01:41;100538.75;;;9.08;65.97
76847;BME280;65813;49.546;8.644;2022-12-28T15:05:48;100527.56;;;9.03;65.59
76847;BME280;65813;49.546;8.644;2022-12-28T15:09:49;100529.06;;;9.07;65.69
76847;BME280;65813;49.546;8.644;2022-12-28T15:13:49;100518.63;;;9.04;65.33
76847;BME280;65813;49.546;8.644;2022-12-28T15:17:50;100535.81;;;9.13;65.24
76847;BME280;65813;49.546;8.644;2022-12-28T15:21:50;100527.47;;;9.05;65.67
76847;BME280;65813;49.546;8.644;2022-12-28T15:25:50;100521.91;;;8.95;66.33
76847;BME280;65813;49.546;8.644;2022-12-28T15:29:50;100512.22;;;8.94;66.19
76847;BME280;65813;49.546;8.644;2022-12-28T15:33:51;100496.47;;;8.91;65.82
76847;BME280;65813;49.546;8.644;2022-12-28T15:37:51;100503.09;;;8.98;65.65
76847;BME280;65813;49.546;8.644;2022-12-28T15:41:51;100494.94;;;9.01;65.15
76847;BME280;65813;49.546;8.644;2022-12-28T15:45:57;100497.03;;;8.96;65.60
76847;BME280;65813;49.546;8.644;2022-12-28T15:49:57;100491.72;;;8.96;65.79
76847;BME280;65813;49.546;8.644;2022-12-28T15:53:59;100488.31;;;8.94;66.36
76847;BME280;65813;49.546;8.644;2022-12-28T15:58:00;100488.06;;;8.85;66.61
76847;BME280;65813;49.546;8.644;2022-12-28T16:02:00;100480.38;;;8.80;66.90
76847;BME280;65813;49.546;8.644;2022-12-28T16:06:04;100471.31;;;8.70;67.42
76847;BME280;65813;49.546;8.644;2022-12-28T16:10:15;100464.16;;;8.85;66.44
76847;BME280;65813;49.546;8.644;2022-12-28T16:14:18;100448.09;;;8.86;66.20
76847;BME280;65813;49.546;8.644;2022-12-28T16:18:24;100447.00;;;8.76;66.51
76847;BME280;65813;49.546;8.644;2022-12-28T16:22:24;100456.84;;;8.88;66.72
76847;BME280;65813;49.546;8.644;2022-12-28T16:26:25;100443.47;;;8.76;66.73
76847;BME280;65813;49.546;8.644;2022-12-28T16:30:25;100434.13;;;8.70;66.59
76847;BME280;65813;49.546;8.644;2022-12-28T16:34:26;100419.53;;;8.63;66.47
76847;BME280;65813;49.546;8.644;2022-12-28T16:38:27;100432.38;;;8.83;65.95
76847;BME280;65813;49.546;8.644;2022-12-28T16:42:28;100448.72;;;8.77;66.32
76847;BME280;65813;49.546;8.644;2022-12-28T16:46:28;100426.84;;;8.86;65.69
76847;BME280;65813;49.546;8.644;2022-12-28T16:50:29;100456.09;;;9.13;64.95
76847;BME280;65813;49.546;8.644;2022-12-28T16:54:30;100452.63;;;8.98;65.91
76847;BME280;65813;49.546;8.644;2022-12-28T16:58:31;100460.44;;;9.14;65.02
76847;BME280;65813;49.546;8.644;2022-12-28T17:02:31;100435.13;;;9.08;64.53
76847;BME280;65813;49.546;8.644;2022-12-28T17:06:32;100420.34;;;9.04;64.50
76847;BME280;65813;49.546;8.644;2022-12-28T17:10:32;100442.22;;;8.95;65.70
76847;BME280;65813;49.546;8.644;2022-12-28T17:14:33;100450.34;;;9.19;64.89
76847;BME280;65813;49.546;8.644;2022-12-28T17:18:33;100449.72;;;9.16;64.73
76847;BME280;65813;49.546;8.644;2022-12-28T17:22:34;100449.50;;;9.19;64.56
76847;BME280;65813;49.546;8.644;2022-12-28T17:26:34;100420.13;;;9.07;64.74
76847;BME280;65813;49.546;8.644;2022-12-28T17:30:35;100401.94;;;9.01;64.91
76847;BME280;65813;49.546;8.644;2022-12-28T17:34:36;100412.59;;;9.14;64.80
76847;BME280;65813;49.546;8.644;2022-12-28T17:38:36;100413.00;;;9.08;64.88
76847;BME280;65813;49.546;8.644;2022-12-28T17:42:39;100408.97;;;9.02;65.09
76847;BME280;65813;49.546;8.644;2022-12-28T17:46:40;100405.88;;;8.96;65.61
76847;BME280;65813;49.546;8.644;2022-12-28T17:50:41;100386.66;;;9.05;65.29
76847;BME280;65813;49.546;8.644;2022-12-28T17:54:42;100390.03;;;8.94;66.28
76847;BME280;65813;49.546;8.644;2022-12-28T17:58:43;100386.09;;;9.00;65.31
76847;BME280;65813;49.546;8.644;2022-12-28T18:02:44;100370.06;;;9.01;65.07
76847;BME280;65813;49.546;8.644;2022-12-28T18:06:45;100364.53;;;9.04;65.06
76847;BME280;65813;49.546;8.644;2022-12-28T18:10:46;100362.72;;;8.92;65.58
76847;BME280;65813;49.546;8.644;2022-12-28T18:14:46;100347.84;;;9.02;65.18
76847;BME280;65813;49.546;8.644;2022-12-28T18:18:47;100322.97;;;9.03;65.21
76847;BME280;65813;49.546;8.644;2022-12-28T18:22:47;100318.28;;;8.94;64.94
76847;BME280;65813;49.546;8.644;2022-12-28T18:26:47;100313.94;;;8.93;65.33
76847;BME280;65813;49.546;8.644;2022-12-28T18:30:48;100308.72;;;8.92;65.02
76847;BME280;65813;49.546;8.644;2022-12-28T18:34:48;100289.28;;;8.91;64.96
76847;BME280;65813;49.546;8.644;2022-12-28T18:38:48;100278.09;;;8.86;65.24
76847;BME280;65813;49.546;8.644;2022-12-28T18:42:49;100271.41;;;8.93;65.32
76847;BME280;65813;49.546;8.644;2022-12-28T18:46:49;100285.03;;;9.14;63.72
76847;BME280;65813;49.546;8.644;2022-12-28T18:50:58;100283.22;;;9.14;63.89
76847;BME280;65813;49.546;8.644;2022-12-28T18:54:59;100288.47;;;9.16;63.38
76847;BME280;65813;49.546;8.644;2022-12-28T18:58:59;100289.00;;;9.34;62.68
76847;BME280;65813;49.546;8.644;2022-12-28T19:02:59;100288.75;;;9.49;61.85
76847;BME280;65813;49.546;8.644;2022-12-28T19:07:00;100281.75;;;9.36;62.69
76847;BME280;65813;49.546;8.644;2022-12-28T19:11:00;100285.38;;;9.47;62.07
76847;BME280;65813;49.546;8.644;2022-12-28T19:15:01;100274.28;;;9.53;61.31
76847;BME280;65813;49.546;8.644;2022-12-28T19:19:02;100263.31;;;9.71;60.56
76847;BME280;65813;49.546;8.644;2022-12-28T19:23:03;100264.59;;;9.65;60.82
76847;BME280;65813;49.546;8.644;2022-12-28T19:27:03;100250.66;;;9.61;61.12
76847;BME280;65813;49.546;8.644;2022-12-28T19:31:03;100250.66;;;9.61;60.95
76847;BME280;65813;49.546;8.644;2022-12-28T19:35:04;100243.88;;;9.45;62.42
76847;BME280;65813;49.546;8.644;2022-12-28T19:39:04;100244.91;;;9.55;61.02
76847;BME280;65813;49.546;8.644;2022-12-28T19:43:05;100240.72;;;9.76;59.96
76847;BME280;65813;49.546;8.644;2022-12-28T19:47:05;100233.44;;;9.91;59.74
76847;BME280;65813;49.546;8.644;2022-12-28T19:51:06;100242.78;;;9.96;59.69
76847;BME280;65813;49.546;8.644;2022-12-28T19:55:07;100243.69;;;9.84;60.25
76847;BME280;65813;49.546;8.644;2022-12-28T19:59:07;100234.53;;;9.88;60.07
76847;BME280;65813;49.546;8.644;2022-12-28T20:03:07;100235.25;;;9.90;60.44
76847;BME280;65813;49.546;8.644;2022-12-28T20:07:08;100228.44;;;9.86;60.74
76847;BME280;65813;49.546;8.644;2022-12-28T20:11:08;100224.38;;;9.93;60.79
76847;BME280;65813;49.546;8.644;2022-12-28T20:15:08;100218.47;;;10.13;59.60
76847;BME280;65813;49.546;8.644;2022-12-28T20:19:10;100204.72;;;10.20;59.38
76847;BME280;65813;49.546;8.644;2022-12-28T20:23:11;100200.25;;;10.07;60.44
76847;BME280;65813;49.546;8.644;2022-12-28T20:27:11;100190.66;;;10.18;60.17
76847;BME280;65813;49.546;8.644;2022-12-28T20:31:13;100183.28;;;10.21;59.98
76847;BME280;65813;49.546;8.644;2022-12-28T20:35:13;100180.75;;;10.20;60.35
76847;BME280;65813;49.546;8.644;2022-12-28T20:39:14;100173.63;;;10.20;60.47
76847;BME280;65813;49.546;8.644;2022-12-28T20:43:14;100152.94;;;10.24;60.31
76847;BME280;65813;49.546;8.644;2022-12-28T20:47:24;100173.25;;;10.25;60.57
76847;BME280;65813;49.546;8.644;2022-12-28T20:51:25;100150.72;;;10.18;60.83
76847;BME280;65813;49.546;8.644;2022-12-28T20:55:25;100166.28;;;10.11;61.96
76847;BME280;65813;49.546;8.644;2022-12-28T20:59:25;100156.22;;;10.27;60.79
76847;BME280;65813;49.546;8.644;2022-12-28T21:03:26;100142.97;;;10.14;61.99
76847;BME280;65813;49.546;8.644;2022-12-28T21:07:26;100140.94;;;10.18;61.44
76847;BME280;65813;49.546;8.644;2022-12-28T21:11:27;100136.81;;;10.14;61.78
76847;BME280;65813;49.546;8.644;2022-12-28T21:15:32;100141.28;;;10.13;62.01
76847;BME280;65813;49.546;8.644;2022-12-28T21:19:32;100133.72;;;10.07;62.33
76847;BME280;65813;49.546;8.644;2022-12-28T21:23:32;100136.75;;;10.03;62.89
76847;BME280;65813;49.546;8.644;2022-12-28T21:27:33;100137.47;;;10.05;62.60
76847;BME280;65813;49.546;8.644;2022-12-28T21:31:34;100122.84;;;10.10;62.33
76847;BME280;65813;49.546;8.644;2022-12-28T21:35:34;100135.94;;;10.13;62.69
76847;BME280;65813;49.546;8.644;2022-12-28T21:39:34;100130.53;;;10.15;62.47
76847;BME280;65813;49.546;8.644;2022-12-28T21:43:35;100140.84;;;10.07;62.70
76847;BME280;65813;49.546;8.644;2022-12-28T21:47:36;100131.19;;;10.06;63.18
76847;BME280;65813;49.546;8.644;2022-12-28T21:51:36;100122.84;;;10.10;63.04
76847;BME280;65813;49.546;8.644;2022-12-28T21:55:38;100127.16;;;10.00;63.50
76847;BME280;65813;49.546;8.644;2022-12-28T21:59:41;100126.22;;;10.01;63.91
76847;BME280;65813;49.546;8.644;2022-12-28T22:03:42;100124.97;;;9.94;63.10
76847;BME280;65813;49.546;8.644;2022-12-28T22:08:00;100132.47;;;9.89;63.88
76847;BME280;65813;49.546;8.644;2022-12-28T22:12:22;100137.56;;;9.92;63.48
